KITH/ITH METAR and TAF weather

Enter ICAO airport designator
Station Type Date Time Source
KITH METAR 2019/12/06 08:56 UTC NOAA

KITH 060856Z AUTO 20005KT 10SM BKN028 OVC065 M02/M05 A3004 RMK AO2 SLP184 T10171050 55006


Station Type Date Time Source
KITH Decoded METAR 2019/12/06 08:56 UTC NOAA

Ithaca, Ithaca Tompkins Regional Airport, NY, United States (KITH) 42-29-27N 076-27-30W
Dec 06, 2019 - 03:56 AM EST / 2019.12.06 0856 UTC
Wind: from the SSW (200 degrees) at 6 MPH (5 KT):0
Visibility: 10 mile(s):0
Sky conditions: overcast
Temperature: 28.9 F (-1.7 C)
Windchill: 23 F (-5 C):1
Dew Point: 23.0 F (-5.0 C)
Relative Humidity: 78%
Pressure (altimeter): 30.04 in. Hg (1017 hPa)
Pressure tendency: 0.02 inches (0.6 hPa) lower than three hours ago
ob: KITH 060856Z AUTO 20005KT 10SM BKN028 OVC065 M02/M05 A3004 RMK AO2 SLP184 T10171050 55006
cycle: 9

Station Type Date Time Source
KITH TAF 2019/12/06 09:57 UTC NOAA

TAF
AMD KITH 060855Z 0609/0706 29007KT P6SM OVC025
FM061100 19007KT 3SM -SN BR OVC025
FM061400 19010KT 2SM -SN BR OVC015
FM061700 22006KT 4SM -SNRA OVC015
FM062100 32009KT 3SM -SN BR OVC008
FM070000 31007KT P6SM BKN015

Example: see airport list